createdAt,value
2019-02-06T00:00:53.918Z,101567.39
2019-02-06T00:02:14.829Z,101564.70
2019-02-06T00:03:21.475Z,101566.92
2019-02-06T00:04:25.622Z,101566.00
2019-02-06T00:05:29.603Z,101562.89
2019-02-06T00:06:33.575Z,101566.01
2019-02-06T00:07:37.642Z,101570.47
2019-02-06T00:08:41.870Z,101570.92
2019-02-06T00:09:46.120Z,101576.28
2019-02-06T00:10:50.332Z,101570.92
2019-02-06T00:11:54.251Z,101571.37
2019-02-06T00:12:58.200Z,101576.72
2019-02-06T00:14:02.458Z,101570.03
2019-02-06T00:15:06.499Z,101573.60
2019-02-06T00:16:10.718Z,101574.50
2019-02-06T00:17:14.686Z,101576.26
2019-02-06T00:18:18.960Z,101571.38
2019-02-06T00:19:23.423Z,101570.91
2019-02-06T00:20:27.631Z,101575.40
2019-02-06T00:21:31.604Z,101571.82
2019-02-06T00:22:35.579Z,101571.38
2019-02-06T00:23:40.080Z,101569.56
2019-02-06T00:24:43.902Z,101570.45
2019-02-06T00:25:48.192Z,101570.92
2019-02-06T00:26:52.418Z,101573.61
2019-02-06T00:27:56.559Z,101570.03
2019-02-06T00:29:00.562Z,101572.70
2019-02-06T00:30:05.833Z,101572.25
2019-02-06T00:31:09.813Z,101570.91
2019-02-06T00:32:13.782Z,101580.74
2019-02-06T00:33:17.923Z,101577.17
2019-02-06T00:34:21.758Z,101578.95
2019-02-06T00:35:26.272Z,101577.61
2019-02-06T00:36:30.275Z,101574.03
2019-02-06T00:37:34.427Z,101570.04
2019-02-06T00:38:38.747Z,101570.92
2019-02-06T00:39:42.938Z,101571.38
2019-02-06T00:40:46.910Z,101577.62
2019-02-06T00:41:51.118Z,101570.92
2019-02-06T00:42:55.019Z,101572.69
2019-02-06T00:43:58.929Z,101575.81
2019-02-06T00:45:03.008Z,101569.56
2019-02-06T00:46:07.474Z,101568.66
2019-02-06T00:47:11.371Z,101572.67
2019-02-06T00:48:15.523Z,101570.84
2019-02-06T00:49:19.746Z,101575.31
2019-02-06T00:50:23.962Z,101571.72
2019-02-06T00:51:28.100Z,101577.99
2019-02-06T00:52:32.003Z,101575.30
2019-02-06T00:53:35.979Z,101579.75
2019-02-06T00:54:40.087Z,101579.75
2019-02-06T00:55:44.306Z,101583.29
2019-02-06T00:56:48.439Z,101580.16
2019-02-06T00:57:52.422Z,101576.16
2019-02-06T00:58:56.386Z,101578.84
2019-02-06T01:00:00.624Z,101576.15
2019-02-06T01:01:05.359Z,101575.70
2019-02-06T01:02:09.576Z,101577.48
2019-02-06T01:03:33.117Z,101577.05
2019-02-06T01:04:56.189Z,101582.84
2019-02-06T01:07:42.484Z,101572.09
2019-02-06T01:08:46.383Z,101566.30
2019-02-06T01:09:50.294Z,101564.06
2019-02-06T01:10:54.519Z,101562.72
2019-02-06T01:11:59.002Z,101570.31
2019-02-06T01:13:03.254Z,101571.20
2019-02-06T01:14:07.231Z,101570.75
2019-02-06T01:15:11.864Z,101572.98
2019-02-06T01:16:15.753Z,101565.40
2019-02-06T01:17:19.727Z,101568.08
2019-02-06T01:18:23.806Z,101565.86
2019-02-06T01:19:27.940Z,101565.40
2019-02-06T01:20:32.107Z,101564.03
2019-02-06T01:21:36.078Z,101563.58
2019-02-06T01:22:40.398Z,101563.56
2019-02-06T01:23:44.610Z,101560.91
2019-02-06T01:24:49.091Z,101564.92
2019-02-06T01:25:53.549Z,101564.46
2019-02-06T01:26:57.869Z,101561.33
2019-02-06T01:28:01.844Z,101561.33
2019-02-06T01:29:06.061Z,101562.21
2019-02-06T01:30:16.644Z,101572.03
2019-02-06T01:31:23.410Z,101568.00
2019-02-06T01:32:27.439Z,101566.23
2019-02-06T01:33:50.349Z,101569.78
2019-02-06T01:35:13.400Z,101563.09
2019-02-06T01:36:36.423Z,101566.23
2019-02-06T01:37:59.517Z,101566.63
2019-02-06T01:40:47.474Z,101571.06
2019-02-06T01:41:51.647Z,101574.58
2019-02-06T01:43:14.670Z,101575.45
2019-02-06T01:44:18.578Z,101574.59
2019-02-06T01:45:43.341Z,101575.01
2019-02-06T01:47:06.471Z,101575.01
2019-02-06T01:48:29.486Z,101563.41
2019-02-06T01:49:52.831Z,101573.25
2019-02-06T01:51:15.879Z,101574.11
2019-02-06T01:52:21.582Z,101573.69
2019-02-06T01:53:46.264Z,101571.86
2019-02-06T01:55:09.661Z,101572.30
2019-02-06T01:58:14.743Z,101574.41
2019-02-06T01:59:37.766Z,101569.05
2019-02-06T02:02:28.969Z,101568.59
2019-02-06T02:03:52.014Z,101565.47
2019-02-06T02:06:22.024Z,101571.71
2019-02-06T02:07:26.275Z,101571.25
2019-02-06T02:08:32.414Z,101572.59
2019-02-06T02:09:36.702Z,101567.68
2019-02-06T02:10:40.971Z,101570.36
2019-02-06T02:11:44.991Z,101563.23
2019-02-06T02:12:49.178Z,101570.38
2019-02-06T02:13:53.651Z,101538.16
2019-02-06T02:14:57.974Z,101560.58
2019-02-06T02:16:02.228Z,101564.14
2019-02-06T02:17:06.233Z,101563.25
2019-02-06T02:18:10.474Z,101562.35
2019-02-06T02:19:14.828Z,101564.12
2019-02-06T02:20:23.112Z,101565.01
2019-02-06T02:21:27.110Z,101565.01
2019-02-06T02:22:31.626Z,101566.80
2019-02-06T02:23:35.616Z,101565.89
2019-02-06T02:24:39.921Z,101567.24
2019-02-06T02:25:44.111Z,101563.22
2019-02-06T02:26:48.637Z,101562.77
2019-02-06T02:28:11.693Z,101558.74
2019-02-06T02:29:34.995Z,101557.86
2019-02-06T02:30:58.126Z,101556.07
2019-02-06T02:32:21.172Z,101558.74
2019-02-06T02:35:26.488Z,101561.84
2019-02-06T02:36:49.887Z,101556.95
2019-02-06T02:39:54.955Z,101554.75
2019-02-06T02:41:18.364Z,101550.72
2019-02-06T02:42:41.407Z,101556.48
2019-02-06T02:44:04.904Z,101557.83
2019-02-06T02:45:49.274Z,101555.97
2019-02-06T02:47:12.715Z,101560.05
2019-02-06T02:48:35.625Z,101557.30
2019-02-06T02:49:40.179Z,101559.06
2019-02-06T02:52:26.283Z,101548.39
2019-02-06T02:53:49.914Z,101546.19
2019-02-06T02:55:13.264Z,101546.63
2019-02-06T02:56:36.320Z,101546.22
2019-02-06T02:57:40.580Z,101540.45
2019-02-06T02:59:03.975Z,101542.16
2019-02-06T03:02:15.931Z,101535.05
2019-02-06T03:03:58.207Z,101541.70
2019-02-06T03:05:21.185Z,101541.28
2019-02-06T03:06:44.334Z,101535.02
2019-02-06T03:08:07.384Z,101529.22
2019-02-06T03:09:12.766Z,101528.80
2019-02-06T03:10:17.061Z,101528.80
2019-02-06T03:13:22.387Z,101520.31
2019-02-06T03:14:45.710Z,101515.92
2019-02-06T03:16:09.068Z,101516.80
2019-02-06T03:17:32.062Z,101517.72
2019-02-06T03:18:57.160Z,101519.07
2019-02-06T03:21:24.618Z,101511.86
2019-02-06T03:22:28.469Z,101517.68
2019-02-06T03:23:51.507Z,101517.70
2019-02-06T03:25:14.402Z,101517.30
2019-02-06T03:26:37.423Z,101514.58
2019-02-06T03:27:41.415Z,101515.11
2019-02-06T03:29:04.707Z,101512.44
2019-02-06T03:30:49.092Z,101521.34
2019-02-06T03:32:12.262Z,101516.40
2019-02-06T03:33:35.523Z,101511.45
2019-02-06T03:34:41.200Z,101514.09
2019-02-06T03:36:05.945Z,101514.53
2019-02-06T03:37:28.920Z,101514.11
2019-02-06T03:38:52.283Z,101520.78
2019-02-06T03:39:56.399Z,101522.49
2019-02-06T03:41:19.427Z,101527.00
2019-02-06T03:43:46.737Z,101526.50
2019-02-06T03:45:30.959Z,101529.67
2019-02-06T03:48:17.596Z,101528.73
2019-02-06T03:51:15.412Z,101527.42
2019-02-06T03:52:28.396Z,101522.94
2019-02-06T03:53:32.527Z,101524.28
2019-02-06T03:54:36.722Z,101523.39
2019-02-06T03:55:59.993Z,101528.30
2019-02-06T03:57:23.007Z,101529.17
2019-02-06T03:58:26.931Z,101526.96
2019-02-06T03:59:50.287Z,101530.02
2019-02-06T04:01:13.253Z,101526.92
2019-02-06T04:02:17.747Z,101528.23
2019-02-06T04:03:41.115Z,101525.55
2019-02-06T04:05:04.763Z,101522.83
2019-02-06T04:06:27.725Z,101514.77
2019-02-06T04:07:50.823Z,101515.69
2019-02-06T04:09:14.228Z,101520.16
2019-02-06T04:10:57.699Z,101514.80
2019-02-06T04:12:20.726Z,101516.61
2019-02-06T04:13:43.936Z,101512.18
2019-02-06T04:15:06.838Z,101514.41
2019-02-06T04:16:30.034Z,101509.53
2019-02-06T04:17:54.531Z,101503.76
2019-02-06T04:18:58.702Z,101508.69
2019-02-06T04:20:22.072Z,101506.52
2019-02-06T04:21:45.426Z,101504.31
2019-02-06T04:24:51.739Z,101508.81
2019-02-06T04:25:56.025Z,101511.92
2019-02-06T04:27:19.164Z,101513.67
2019-02-06T04:30:44.709Z,101516.28
2019-02-06T04:33:49.687Z,101513.59
2019-02-06T04:35:12.967Z,101513.59
2019-02-06T04:36:17.374Z,101508.66
2019-02-06T04:37:40.403Z,101508.69
2019-02-06T04:38:44.934Z,101510.46
2019-02-06T04:40:08.184Z,101504.22
2019-02-06T04:41:31.542Z,101502.48
2019-02-06T04:42:56.478Z,101498.89
2019-02-06T04:44:00.638Z,101498.44
2019-02-06T04:45:44.367Z,101499.71
2019-02-06T04:47:07.605Z,101498.34
2019-02-06T04:48:32.230Z,101504.52
2019-02-06T04:49:36.823Z,101479.00
2019-02-06T04:52:22.725Z,101497.84
2019-02-06T04:53:26.918Z,101503.58
2019-02-06T04:54:50.128Z,101503.59
2019-02-06T04:55:54.629Z,101498.28
2019-02-06T04:57:17.586Z,101500.48
2019-02-06T04:58:40.721Z,101500.41
2019-02-06T05:00:03.758Z,101495.05
2019-02-06T05:01:26.716Z,101502.98
2019-02-06T05:04:12.692Z,101511.45
2019-02-06T05:05:35.723Z,101512.80
2019-02-06T05:06:40.329Z,101518.11
2019-02-06T05:07:44.538Z,101521.66
2019-02-06T05:12:50.824Z,101506.66
2019-02-06T05:13:54.650Z,101510.22
2019-02-06T05:15:17.967Z,101511.59
2019-02-06T05:16:21.801Z,101512.52
2019-02-06T05:19:07.921Z,101506.70
2019-02-06T05:20:50.331Z,101515.56
2019-02-06T05:22:13.613Z,101510.22
2019-02-06T05:23:57.326Z,101508.02
2019-02-06T05:25:01.868Z,101503.59
2019-02-06T05:26:24.909Z,101509.78
2019-02-06T05:27:30.893Z,101502.23
2019-02-06T05:30:38.034Z,101508.42
2019-02-06T05:32:01.050Z,101503.51
2019-02-06T05:33:44.604Z,101503.91
2019-02-06T05:35:07.734Z,101499.92
2019-02-06T05:36:30.716Z,101498.60
2019-02-06T05:41:18.323Z,101501.23
2019-02-06T05:46:06.989Z,101502.59
2019-02-06T05:47:30.305Z,101504.80
2019-02-06T05:48:53.624Z,101501.22
2019-02-06T05:50:16.678Z,101502.61
2019-02-06T05:51:20.889Z,101503.07
2019-02-06T05:52:44.032Z,101499.42
2019-02-06T05:53:48.142Z,101501.64
2019-02-06T05:55:11.498Z,101505.20
2019-02-06T05:56:34.410Z,101506.98
2019-02-06T05:57:57.670Z,101498.95
2019-02-06T05:59:01.585Z,101507.45
2019-02-06T06:00:46.532Z,101506.62
2019-02-06T06:02:09.842Z,101514.13
2019-02-06T06:03:15.466Z,101511.41
2019-02-06T06:04:38.375Z,101509.61
2019-02-06T06:06:01.303Z,101519.84
2019-02-06T06:07:24.860Z,101493.41
2019-02-06T06:08:29.080Z,101511.78
2019-02-06T06:09:32.902Z,101508.25
2019-02-06T06:10:37.050Z,101510.48
2019-02-06T06:11:40.968Z,101508.28
2019-02-06T06:12:45.150Z,101510.48
2019-02-06T06:13:49.373Z,101512.70
2019-02-06T06:14:53.521Z,101509.15
2019-02-06T06:15:57.952Z,101507.36
2019-02-06T06:17:01.940Z,101513.16
2019-02-06T06:18:05.907Z,101507.41
2019-02-06T06:19:09.804Z,101513.62
2019-02-06T06:20:14.820Z,101507.83
2019-02-06T06:21:19.213Z,101508.28
2019-02-06T06:22:23.198Z,101507.00
2019-02-06T06:23:27.269Z,101504.77
2019-02-06T06:24:31.250Z,101511.02
2019-02-06T06:25:35.229Z,101516.80
2019-02-06T06:26:39.139Z,101508.33
2019-02-06T06:27:43.126Z,101502.55
2019-02-06T06:28:47.028Z,101511.89
2019-02-06T06:29:51.189Z,101511.02
2019-02-06T06:30:55.146Z,101511.45
2019-02-06T06:31:59.117Z,101516.34
2019-02-06T06:33:02.984Z,101515.47
2019-02-06T06:34:07.173Z,101515.47
2019-02-06T06:35:11.641Z,101508.81
2019-02-06T06:36:35.039Z,101516.39
2019-02-06T06:38:01.763Z,101506.16
2019-02-06T06:40:48.483Z,101502.59
2019-02-06T06:42:11.512Z,101500.36
2019-02-06T06:43:34.410Z,101499.48
2019-02-06T06:46:21.010Z,101503.48
2019-02-06T06:47:44.355Z,101505.27
2019-02-06T06:49:07.316Z,101501.25
2019-02-06T06:50:51.979Z,101510.15
2019-02-06T06:51:55.812Z,101495.44
2019-02-06T06:53:19.186Z,101507.00
2019-02-06T06:54:42.465Z,101496.77
2019-02-06T06:56:05.486Z,101503.01
2019-02-06T06:57:29.060Z,101500.78
2019-02-06T06:58:34.702Z,101498.15
2019-02-06T07:01:39.657Z,101501.66
2019-02-06T07:03:02.684Z,101511.02
2019-02-06T07:04:25.688Z,101509.68
2019-02-06T07:05:50.359Z,101507.01
2019-02-06T07:07:34.067Z,101513.25
2019-02-06T07:08:56.975Z,101515.47
2019-02-06T07:13:24.961Z,101515.02
2019-02-06T07:14:48.318Z,101524.36
2019-02-06T07:16:12.928Z,101527.95
2019-02-06T07:17:36.283Z,101526.16
2019-02-06T07:18:59.324Z,101523.48
2019-02-06T07:20:03.320Z,101523.05
2019-02-06T07:21:07.302Z,101524.41
2019-02-06T07:22:30.267Z,101530.66
2019-02-06T07:23:53.423Z,101528.45
2019-02-06T07:25:16.411Z,101526.68
2019-02-06T07:26:39.429Z,101528.00
2019-02-06T07:29:25.812Z,101537.40
2019-02-06T07:31:10.087Z,101526.73
2019-02-06T07:32:36.212Z,101528.55
2019-02-06T07:33:39.035Z,101529.89
2019-02-06T07:35:02.196Z,101527.72
2019-02-06T07:37:48.322Z,101526.84
2019-02-06T07:39:13.324Z,101531.80
2019-02-06T07:40:56.821Z,101530.91
2019-02-06T07:43:24.006Z,101531.80
2019-02-06T07:44:47.614Z,101533.56
2019-02-06T07:45:51.790Z,101543.38
2019-02-06T07:46:57.773Z,101538.51
2019-02-06T07:48:03.756Z,101536.30
2019-02-06T07:51:08.734Z,101541.67
2019-02-06T07:52:32.110Z,101542.58
2019-02-06T07:53:55.464Z,101536.38
2019-02-06T07:55:20.576Z,101533.72
2019-02-06T07:56:43.843Z,101538.19
2019-02-06T07:58:06.815Z,101541.78
2019-02-06T07:59:30.110Z,101537.79
2019-02-06T08:00:53.161Z,101542.70
2019-02-06T08:01:58.790Z,101544.02
2019-02-06T08:03:04.849Z,101541.82
2019-02-06T08:04:08.748Z,101541.36
2019-02-06T08:05:15.132Z,101540.48
2019-02-06T08:06:19.030Z,101545.41
2019-02-06T08:07:22.926Z,101539.62
2019-02-06T08:08:35.628Z,101542.30
2019-02-06T08:09:32.626Z,101540.50
2019-02-06T08:10:36.864Z,101544.53
2019-02-06T08:11:41.077Z,101540.99
2019-02-06T08:12:44.986Z,101545.47
2019-02-06T08:13:49.058Z,101536.10
2019-02-06T08:14:53.738Z,101539.23
2019-02-06T08:15:57.694Z,101537.91
2019-02-06T08:17:01.630Z,101541.45
2019-02-06T08:18:06.650Z,101541.47
2019-02-06T08:19:11.245Z,101541.05
2019-02-06T08:20:16.866Z,101538.38
2019-02-06T08:21:21.030Z,101541.95
2019-02-06T08:22:24.930Z,101538.41
2019-02-06T08:23:48.134Z,101543.77
2019-02-06T08:25:11.026Z,101542.01
2019-02-06T08:26:34.092Z,101536.23
2019-02-06T08:27:56.994Z,101520.56
2019-02-06T08:29:08.367Z,101551.41
2019-02-06T08:30:54.188Z,101548.71
2019-02-06T08:32:17.100Z,101544.70
2019-02-06T08:33:40.126Z,101548.30
2019-02-06T08:35:03.439Z,101544.74
2019-02-06T08:38:49.382Z,101545.25
2019-02-06T08:39:51.915Z,101541.23
2019-02-06T08:41:14.955Z,101547.51
2019-02-06T08:42:38.173Z,101536.38
2019-02-06T08:43:42.409Z,101542.15
2019-02-06T08:45:05.776Z,101539.95
2019-02-06T08:46:28.806Z,101540.41
2019-02-06T08:47:51.836Z,101538.64
2019-02-06T08:49:15.130Z,101534.19
2019-02-06T08:50:58.899Z,101532.39
2019-02-06T08:52:21.934Z,101536.86
2019-02-06T08:53:45.022Z,101535.11
2019-02-06T08:55:09.724Z,101540.03
2019-02-06T08:56:53.291Z,101533.78
2019-02-06T08:58:36.779Z,101537.36
2019-02-06T08:59:41.090Z,101532.46
2019-02-06T09:01:04.292Z,101536.05
2019-02-06T09:02:27.302Z,101533.81
2019-02-06T09:05:52.859Z,101531.63
2019-02-06T09:06:56.827Z,101537.86
2019-02-06T09:08:01.133Z,101538.74
2019-02-06T09:09:46.679Z,101540.52
2019-02-06T09:10:50.905Z,101537.42
2019-02-06T09:12:14.131Z,101535.64
2019-02-06T09:13:38.882Z,101537.85
2019-02-06T09:15:01.902Z,101534.31
2019-02-06T09:16:45.373Z,101536.08
2019-02-06T09:18:08.594Z,101534.31
2019-02-06T09:19:31.918Z,101532.55
2019-02-06T09:22:19.374Z,101529.02
2019-02-06T09:23:42.397Z,101532.14
2019-02-06T09:25:07.005Z,101529.03
2019-02-06T09:26:33.972Z,101522.77
2019-02-06T09:27:54.732Z,101522.77
2019-02-06T09:29:17.752Z,101520.55
2019-02-06T09:31:02.347Z,101523.22
2019-02-06T09:32:25.626Z,101520.09
2019-02-06T09:33:49.034Z,101528.09
2019-02-06T09:35:11.998Z,101528.12
2019-02-06T09:36:36.686Z,101517.41
2019-02-06T09:37:59.717Z,101521.40
2019-02-06T09:40:45.845Z,101521.84
2019-02-06T09:41:49.689Z,101516.47
2019-02-06T09:43:12.803Z,101524.95
2019-02-06T09:44:16.944Z,101515.14
2019-02-06T09:45:20.918Z,101515.17
2019-02-06T09:46:44.184Z,101516.05
2019-02-06T09:47:49.911Z,101516.94
2019-02-06T09:48:54.350Z,101512.90
2019-02-06T09:50:17.318Z,101506.66
2019-02-06T09:51:40.427Z,101510.66
2019-02-06T09:53:04.007Z,101515.13
2019-02-06T09:55:53.255Z,101505.80
2019-02-06T09:56:56.779Z,101505.78
2019-02-06T09:58:00.770Z,101507.55
2019-02-06T09:59:23.794Z,101505.77
2019-02-06T10:01:10.044Z,101509.78
2019-02-06T10:02:33.255Z,101505.76
2019-02-06T10:03:56.295Z,101509.34
2019-02-06T10:05:19.573Z,101508.03
2019-02-06T10:06:42.594Z,101506.22
2019-02-06T10:07:46.600Z,101504.89
2019-02-06T10:08:50.872Z,101500.43
2019-02-06T10:10:14.162Z,101496.00
2019-02-06T10:13:19.283Z,101504.03
2019-02-06T10:14:42.378Z,101497.38
2019-02-06T10:15:46.210Z,101497.81
2019-02-06T10:17:09.775Z,101505.88
2019-02-06T10:18:32.856Z,101500.95
2019-02-06T10:19:55.974Z,101502.71
2019-02-06T10:21:00.001Z,101501.84
2019-02-06T10:22:23.186Z,101501.36
2019-02-06T10:23:46.206Z,101490.64
2019-02-06T10:24:50.371Z,101494.25
2019-02-06T10:26:13.415Z,101501.36
2019-02-06T10:27:17.662Z,101497.81
2019-02-06T10:28:40.713Z,101497.81
2019-02-06T10:30:04.061Z,101501.41
2019-02-06T10:31:09.318Z,101497.81
2019-02-06T10:32:32.652Z,101492.91
2019-02-06T10:33:55.632Z,101488.88
2019-02-06T10:35:20.246Z,101498.27
2019-02-06T10:36:43.539Z,101487.09
2019-02-06T10:38:07.408Z,101489.78
2019-02-06T10:39:50.883Z,101488.88
2019-02-06T10:41:13.936Z,101482.19
2019-02-06T10:42:17.843Z,101485.77
2019-02-06T10:43:41.231Z,101483.52
2019-02-06T10:45:04.141Z,101477.70
2019-02-06T10:46:08.384Z,101472.81
2019-02-06T10:47:12.281Z,101471.45
2019-02-06T10:48:16.495Z,101476.38
2019-02-06T10:49:20.483Z,101471.89
2019-02-06T10:50:25.726Z,101472.80
2019-02-06T10:51:29.622Z,101465.64
2019-02-06T10:52:33.522Z,101464.28
2019-02-06T10:53:37.374Z,101462.50
2019-02-06T10:54:41.458Z,101460.69
2019-02-06T10:55:47.181Z,101460.69
2019-02-06T10:56:53.250Z,101458.02
2019-02-06T10:58:16.272Z,101455.33
2019-02-06T10:59:39.270Z,101454.86
2019-02-06T11:01:27.683Z,101447.70
2019-02-06T11:02:50.994Z,101441.45
2019-02-06T11:04:14.354Z,101442.34
2019-02-06T11:05:37.323Z,101435.16
2019-02-06T11:07:00.342Z,101429.82
2019-02-06T11:08:43.813Z,101431.16
2019-02-06T11:10:07.123Z,101428.48
2019-02-06T11:11:11.634Z,101431.58
2019-02-06T11:12:34.854Z,101411.00
2019-02-06T11:13:38.683Z,101420.88
2019-02-06T11:15:01.731Z,101414.14
2019-02-06T11:16:24.696Z,101412.80
2019-02-06T11:17:48.030Z,101417.72
2019-02-06T11:19:11.386Z,101406.92
2019-02-06T11:20:56.223Z,101405.61
2019-02-06T11:22:19.499Z,101402.48
2019-02-06T11:23:44.270Z,101388.20
2019-02-06T11:25:07.172Z,101361.39
2019-02-06T11:26:30.134Z,101410.53
2019-02-06T11:27:53.431Z,101409.19
2019-02-06T11:29:16.987Z,101406.95
2019-02-06T11:31:01.846Z,101397.97
2019-02-06T11:33:49.589Z,101389.88
2019-02-06T11:35:14.365Z,101380.90
2019-02-06T11:36:37.563Z,101386.70
2019-02-06T11:37:41.831Z,101371.45
2019-02-06T11:41:29.763Z,101375.92
2019-02-06T11:46:17.319Z,101366.42
2019-02-06T11:47:40.464Z,101363.69
2019-02-06T11:48:44.628Z,101369.96
2019-02-06T11:50:09.862Z,101370.84
2019-02-06T11:51:32.887Z,101365.85
2019-02-06T11:52:56.151Z,101368.14
2019-02-06T11:54:19.418Z,101366.35
2019-02-06T11:55:43.607Z,101362.77
2019-02-06T11:56:47.563Z,101363.16
2019-02-06T11:58:12.312Z,101354.19
2019-02-06T11:59:16.488Z,101353.25
2019-02-06T12:01:00.583Z,101343.75
2019-02-06T12:04:08.594Z,101341.98
2019-02-06T12:05:52.093Z,101340.19
2019-02-06T12:07:15.419Z,101341.92
2019-02-06T12:10:20.503Z,101335.17
2019-02-06T12:11:43.710Z,101322.11
2019-02-06T12:13:29.410Z,101320.24
2019-02-06T12:14:52.391Z,101314.44
2019-02-06T12:16:15.487Z,101309.92
2019-02-06T12:17:38.738Z,101308.14
2019-02-06T12:19:01.875Z,101305.00
2019-02-06T12:20:08.759Z,101306.70
2019-02-06T12:21:31.668Z,101303.12
2019-02-06T12:22:54.804Z,101298.14
2019-02-06T12:26:00.199Z,101288.69
2019-02-06T12:27:23.298Z,101284.06
2019-02-06T12:28:46.317Z,101284.95
2019-02-06T12:31:55.675Z,101277.77
2019-02-06T12:32:59.663Z,101276.35
2019-02-06T12:35:47.614Z,101278.90
2019-02-06T12:36:51.778Z,101269.02
2019-02-06T12:37:55.769Z,101264.98
2019-02-06T12:39:19.007Z,101261.34
2019-02-06T12:43:34.910Z,101260.39
2019-02-06T12:44:59.127Z,101259.04
2019-02-06T12:46:23.074Z,101226.52
2019-02-06T12:47:27.282Z,101251.34
2019-02-06T12:48:31.761Z,101253.95
2019-02-06T12:49:35.903Z,101249.75
2019-02-06T12:50:40.115Z,101247.05
2019-02-06T12:51:44.207Z,101245.28
2019-02-06T12:52:48.153Z,101239.48
2019-02-06T12:53:52.383Z,101245.30
2019-02-06T12:54:56.463Z,101237.07
2019-02-06T12:56:00.430Z,101238.89
2019-02-06T12:57:04.653Z,101240.23
2019-02-06T12:58:09.189Z,101238.88
2019-02-06T12:59:13.402Z,101237.44
2019-02-06T13:00:23.430Z,101231.58
2019-02-06T13:01:27.563Z,101233.35
2019-02-06T13:02:31.546Z,101233.27
2019-02-06T13:03:35.768Z,101235.02
2019-02-06T13:04:39.915Z,101227.76
2019-02-06T13:05:44.126Z,101227.25
2019-02-06T13:06:48.283Z,101222.08
2019-02-06T13:07:52.542Z,101216.23
2019-02-06T13:08:56.749Z,101213.43
2019-02-06T13:10:00.718Z,101212.54
2019-02-06T13:11:04.953Z,101210.83
2019-02-06T13:12:09.183Z,101215.91
2019-02-06T13:13:13.414Z,101209.95
2019-02-06T13:14:17.804Z,101205.94
2019-02-06T13:15:22.541Z,101203.67
2019-02-06T13:16:26.790Z,101202.48
2019-02-06T13:17:30.944Z,101207.00
2019-02-06T13:18:34.768Z,101204.30
2019-02-06T13:19:38.668Z,101203.39
2019-02-06T13:20:54.622Z,101204.28
2019-02-06T13:22:17.528Z,101205.61
2019-02-06T13:23:42.271Z,101194.34
2019-02-06T13:24:46.392Z,101195.59
2019-02-06T13:26:09.332Z,101193.81
2019-02-06T13:27:32.687Z,101185.75
2019-02-06T13:28:55.635Z,101187.91
2019-02-06T13:30:19.112Z,101188.75
2019-02-06T13:31:44.091Z,101191.12
2019-02-06T13:32:48.392Z,101194.27
2019-02-06T13:34:11.748Z,101184.27
2019-02-06T13:35:35.273Z,101181.25
2019-02-06T13:36:39.411Z,101180.44
2019-02-06T13:39:31.267Z,101177.74
2019-02-06T13:40:56.345Z,101179.02
2019-02-06T13:42:19.241Z,101173.61
2019-02-06T13:43:23.162Z,101170.48
2019-02-06T13:44:27.080Z,101169.13
2019-02-06T13:45:33.540Z,101169.64
2019-02-06T13:46:37.711Z,101165.96
2019-02-06T13:48:01.376Z,101171.80
2019-02-06T13:49:05.608Z,101167.77
2019-02-06T13:50:49.584Z,101165.96
2019-02-06T13:52:12.545Z,101163.72
2019-02-06T13:53:37.587Z,101155.16
2019-02-06T13:58:45.602Z,101156.53
2019-02-06T13:59:49.584Z,101145.28
2019-02-06T14:01:12.675Z,101143.52
2019-02-06T14:04:17.896Z,101142.59
2019-02-06T14:05:41.883Z,101146.61
2019-02-06T14:07:05.086Z,101138.52
2019-02-06T14:08:13.177Z,101134.06
2019-02-06T14:11:01.240Z,101136.77
2019-02-06T14:12:25.807Z,101134.52
2019-02-06T14:13:49.201Z,101138.59
2019-02-06T14:15:12.230Z,101134.12
2019-02-06T14:18:20.303Z,101132.33
2019-02-06T14:19:43.318Z,101126.03
2019-02-06T14:21:10.242Z,101126.91
2019-02-06T14:22:33.461Z,101126.77
2019-02-06T14:24:15.615Z,101129.49
2019-02-06T14:25:40.591Z,101123.27
2019-02-06T14:27:26.945Z,101127.33
2019-02-06T14:29:02.410Z,101124.68
2019-02-06T14:30:44.550Z,101127.38
2019-02-06T14:32:26.956Z,101113.52
2019-02-06T14:34:15.263Z,101114.45
2019-02-06T14:36:04.369Z,101109.96
2019-02-06T14:37:46.746Z,101106.81
2019-02-06T14:39:28.905Z,101109.11
2019-02-06T14:41:11.290Z,101109.03
2019-02-06T14:42:38.116Z,101109.07
2019-02-06T14:44:20.275Z,101104.23
2019-02-06T14:46:02.414Z,101102.95
2019-02-06T14:47:32.475Z,101100.23
2019-02-06T14:49:14.625Z,101097.16
2019-02-06T14:50:56.773Z,101093.17
2019-02-06T14:52:28.613Z,101095.80
2019-02-06T14:54:10.991Z,101087.33
2019-02-06T14:55:53.566Z,101086.84
2019-02-06T14:57:35.951Z,101086.50
2019-02-06T14:59:18.280Z,101079.77
2019-02-06T15:01:02.078Z,101080.75
2019-02-06T15:02:44.523Z,101076.32
2019-02-06T15:04:27.048Z,101072.69
2019-02-06T15:06:10.940Z,101071.05
2019-02-06T15:07:53.086Z,101068.84
2019-02-06T15:09:35.762Z,101072.44
2019-02-06T15:11:20.126Z,101074.30
2019-02-06T15:12:48.887Z,101061.88
2019-02-06T15:14:31.329Z,101055.19
2019-02-06T15:15:41.870Z,101060.09
2019-02-06T15:17:24.250Z,101055.53
2019-02-06T15:19:12.157Z,101060.56
2019-02-06T15:20:54.343Z,101060.35
2019-02-06T15:22:21.586Z,101060.28
2019-02-06T15:24:03.727Z,101057.68
2019-02-06T15:25:51.744Z,101063.35
2019-02-06T15:27:33.951Z,101061.17
2019-02-06T15:29:05.104Z,101058.57
2019-02-06T15:32:34.699Z,101059.94
2019-02-06T15:34:02.328Z,101060.72
2019-02-06T15:35:44.502Z,101059.38
2019-02-06T15:37:12.112Z,101057.20
2019-02-06T15:38:54.492Z,101067.09
2019-02-06T15:40:36.646Z,101065.35
2019-02-06T15:42:18.865Z,101063.64
2019-02-06T15:44:03.068Z,101060.98
2019-02-06T15:45:45.487Z,101066.95
2019-02-06T15:47:29.354Z,101064.72
2019-02-06T15:49:16.286Z,101065.23
2019-02-06T15:50:58.764Z,101066.14
2019-02-06T15:52:40.975Z,101066.52
2019-02-06T15:54:23.105Z,101065.23
2019-02-06T15:56:05.314Z,101067.94
2019-02-06T15:57:47.923Z,101068.84
2019-02-06T15:59:30.086Z,101062.20
2019-02-06T16:01:13.970Z,101068.95
2019-02-06T16:02:56.351Z,101062.27
2019-02-06T16:04:43.196Z,101062.79
2019-02-06T16:06:28.584Z,101056.52
2019-02-06T16:08:22.586Z,101066.44
2019-02-06T16:09:47.785Z,101070.53
2019-02-06T16:11:30.120Z,101059.80
2019-02-06T16:13:12.508Z,101059.35
2019-02-06T16:14:55.198Z,101053.05
2019-02-06T16:16:34.919Z,101057.54
2019-02-06T16:18:17.306Z,101053.61
2019-02-06T16:20:05.526Z,101050.48
2019-02-06T16:21:53.009Z,101049.20
2019-02-06T16:23:16.279Z,101056.43
2019-02-06T16:25:07.735Z,101051.51
2019-02-06T16:26:47.370Z,101053.78
2019-02-06T16:28:21.368Z,101054.28
2019-02-06T16:30:00.021Z,101058.80
2019-02-06T16:31:32.843Z,101056.17
2019-02-06T16:33:03.434Z,101058.89
2019-02-06T16:34:33.643Z,101055.77